X  Close Metar Aviation Weather Data     EHKD De Kooy Airport
Temperature
6°C Temperature
1°C Dewpoint
71% Humidity



Wind
14 MPH
23 KM/H
6 M/S
12 KTS



30°
NNE
Current Conditions

Mostly Cloudy Mostly Cloudy
Pressure 1016.93 (hPa) - 30.03 (inHg)
Visibility 6 (mile) - 9.7 (km)
Airport
Airport-code EHKD

Location: De Kooy Airport
Distance: 34 (mi)

Metar:
EHKD 262348Z AUTO 03012KT 360V060 9999 BKN024 06/01 Q1017 WHT

Time: 27-02-2024 00:48 CET